sensor_id;sensor_type;location;lat;lon;timestamp;P1;durP1;ratioP1;P2;durP2;ratioP2
2035;SDS011;23642;42.658;23.350;2022-12-18T00:02:15;67.40;;;62.60;;
2035;SDS011;23642;42.658;23.350;2022-12-18T00:04:41;68.53;;;63.53;;
2035;SDS011;23642;42.658;23.350;2022-12-18T00:07:08;68.50;;;63.60;;
2035;SDS011;23642;42.658;23.350;2022-12-18T00:09:35;68.03;;;63.20;;
2035;SDS011;23642;42.658;23.350;2022-12-18T00:12:04;68.60;;;63.70;;
2035;SDS011;23642;42.658;23.350;2022-12-18T00:14:31;69.13;;;64.17;;
2035;SDS011;23642;42.658;23.350;2022-12-18T00:16:57;68.70;;;63.70;;
2035;SDS011;23642;42.658;23.350;2022-12-18T00:19:25;67.93;;;63.13;;
2035;SDS011;23642;42.658;23.350;2022-12-18T00:21:53;68.67;;;63.80;;
2035;SDS011;23642;42.658;23.350;2022-12-18T00:24:23;66.70;;;61.90;;
2035;SDS011;23642;42.658;23.350;2022-12-18T00:26:49;68.20;;;63.03;;
2035;SDS011;23642;42.658;23.350;2022-12-18T00:29:17;68.30;;;63.40;;
2035;SDS011;23642;42.658;23.350;2022-12-18T00:31:44;69.97;;;65.00;;
2035;SDS011;23642;42.658;23.350;2022-12-18T00:34:11;69.50;;;64.50;;
2035;SDS011;23642;42.658;23.350;2022-12-18T00:36:39;69.33;;;64.33;;
2035;SDS011;23642;42.658;23.350;2022-12-18T00:39:07;67.93;;;63.00;;
2035;SDS011;23642;42.658;23.350;2022-12-18T00:41:35;68.40;;;63.47;;
2035;SDS011;23642;42.658;23.350;2022-12-18T00:44:20;69.70;;;64.43;;
2035;SDS011;23642;42.658;23.350;2022-12-18T00:46:47;69.90;;;64.90;;
2035;SDS011;23642;42.658;23.350;2022-12-18T00:49:14;71.10;;;66.00;;
2035;SDS011;23642;42.658;23.350;2022-12-18T00:51:42;69.80;;;64.80;;
2035;SDS011;23642;42.658;23.350;2022-12-18T00:54:08;69.33;;;64.33;;
2035;SDS011;23642;42.658;23.350;2022-12-18T00:56:36;69.67;;;64.27;;
2035;SDS011;23642;42.658;23.350;2022-12-18T00:59:03;68.23;;;63.33;;
2035;SDS011;23642;42.658;23.350;2022-12-18T01:01:31;69.57;;;64.57;;
2035;SDS011;23642;42.658;23.350;2022-12-18T01:03:59;69.23;;;64.10;;
2035;SDS011;23642;42.658;23.350;2022-12-18T01:06:27;69.40;;;64.33;;
2035;SDS011;23642;42.658;23.350;2022-12-18T01:08:54;71.47;;;66.03;;
2035;SDS011;23642;42.658;23.350;2022-12-18T01:11:21;70.30;;;65.10;;
2035;SDS011;23642;42.658;23.350;2022-12-18T01:13:48;69.53;;;64.43;;
2035;SDS011;23642;42.658;23.350;2022-12-18T01:16:16;70.13;;;65.17;;
2035;SDS011;23642;42.658;23.350;2022-12-18T01:18:44;72.00;;;66.50;;
2035;SDS011;23642;42.658;23.350;2022-12-18T01:21:12;69.60;;;64.50;;
2035;SDS011;23642;42.658;23.350;2022-12-18T01:23:40;72.53;;;67.23;;
2035;SDS011;23642;42.658;23.350;2022-12-18T01:26:08;70.07;;;65.13;;
2035;SDS011;23642;42.658;23.350;2022-12-18T01:28:36;70.50;;;65.03;;
2035;SDS011;23642;42.658;23.350;2022-12-18T01:31:10;72.80;;;67.60;;
2035;SDS011;23642;42.658;23.350;2022-12-18T01:33:41;72.87;;;67.70;;
2035;SDS011;23642;42.658;23.350;2022-12-18T01:36:11;72.50;;;67.37;;
2035;SDS011;23642;42.658;23.350;2022-12-18T01:38:41;73.13;;;67.93;;
2035;SDS011;23642;42.658;23.350;2022-12-18T01:41:07;71.33;;;66.23;;
2035;SDS011;23642;42.658;23.350;2022-12-18T01:43:48;72.90;;;67.43;;
2035;SDS011;23642;42.658;23.350;2022-12-18T01:46:19;71.47;;;66.37;;
2035;SDS011;23642;42.658;23.350;2022-12-18T01:48:48;73.13;;;67.83;;
2035;SDS011;23642;42.658;23.350;2022-12-18T01:51:19;70.50;;;65.47;;
2035;SDS011;23642;42.658;23.350;2022-12-18T01:53:46;72.67;;;67.47;;
2035;SDS011;23642;42.658;23.350;2022-12-18T01:56:13;72.23;;;67.03;;
2035;SDS011;23642;42.658;23.350;2022-12-18T01:58:48;71.40;;;66.30;;
2035;SDS011;23642;42.658;23.350;2022-12-18T02:01:22;71.83;;;66.60;;
2035;SDS011;23642;42.658;23.350;2022-12-18T02:03:50;70.53;;;65.53;;
2035;SDS011;23642;42.658;23.350;2022-12-18T02:06:20;72.00;;;66.80;;
2035;SDS011;23642;42.658;23.350;2022-12-18T02:08:56;70.70;;;65.60;;
2035;SDS011;23642;42.658;23.350;2022-12-18T02:11:38;70.83;;;65.73;;
2035;SDS011;23642;42.658;23.350;2022-12-18T02:14:14;68.47;;;63.47;;
2035;SDS011;23642;42.658;23.350;2022-12-18T02:16:51;72.20;;;66.97;;
2035;SDS011;23642;42.658;23.350;2022-12-18T02:19:33;70.43;;;65.40;;
2035;SDS011;23642;42.658;23.350;2022-12-18T02:22:14;72.30;;;67.10;;
2035;SDS011;23642;42.658;23.350;2022-12-18T02:24:56;72.93;;;67.53;;
2035;SDS011;23642;42.658;23.350;2022-12-18T02:27:28;69.30;;;64.37;;
2035;SDS011;23642;42.658;23.350;2022-12-18T02:30:05;72.27;;;66.97;;
2035;SDS011;23642;42.658;23.350;2022-12-18T02:32:35;73.80;;;68.50;;
2035;SDS011;23642;42.658;23.350;2022-12-18T02:35:06;71.40;;;66.20;;
2035;SDS011;23642;42.658;23.350;2022-12-18T02:37:35;71.40;;;66.10;;
2035;SDS011;23642;42.658;23.350;2022-12-18T02:40:06;72.63;;;67.33;;
2035;SDS011;23642;42.658;23.350;2022-12-18T02:42:35;73.30;;;68.07;;
2035;SDS011;23642;42.658;23.350;2022-12-18T02:45:02;71.50;;;65.97;;
2035;SDS011;23642;42.658;23.350;2022-12-18T02:47:30;73.77;;;68.23;;
2035;SDS011;23642;42.658;23.350;2022-12-18T02:50:02;71.87;;;66.73;;
2035;SDS011;23642;42.658;23.350;2022-12-18T02:52:38;72.20;;;66.20;;
2035;SDS011;23642;42.658;23.350;2022-12-18T02:55:17;73.20;;;67.73;;
2035;SDS011;23642;42.658;23.350;2022-12-18T02:57:56;72.53;;;67.23;;
2035;SDS011;23642;42.658;23.350;2022-12-18T03:00:30;72.70;;;67.50;;
2035;SDS011;23642;42.658;23.350;2022-12-18T03:03:13;71.27;;;66.23;;
2035;SDS011;23642;42.658;23.350;2022-12-18T03:05:45;72.20;;;67.00;;
2035;SDS011;23642;42.658;23.350;2022-12-18T03:08:17;72.80;;;67.37;;
2035;SDS011;23642;42.658;23.350;2022-12-18T03:10:49;71.53;;;66.23;;
2035;SDS011;23642;42.658;23.350;2022-12-18T03:13:25;71.43;;;66.23;;
2035;SDS011;23642;42.658;23.350;2022-12-18T03:15:56;71.40;;;66.30;;
2035;SDS011;23642;42.658;23.350;2022-12-18T03:18:25;69.93;;;64.80;;
2035;SDS011;23642;42.658;23.350;2022-12-18T03:20:57;68.70;;;63.80;;
2035;SDS011;23642;42.658;23.350;2022-12-18T03:23:29;70.47;;;65.37;;
2035;SDS011;23642;42.658;23.350;2022-12-18T03:25:59;72.53;;;67.37;;
2035;SDS011;23642;42.658;23.350;2022-12-18T03:28:35;73.03;;;67.73;;
2035;SDS011;23642;42.658;23.350;2022-12-18T03:31:07;71.47;;;66.37;;
2035;SDS011;23642;42.658;23.350;2022-12-18T03:33:37;72.40;;;67.23;;
2035;SDS011;23642;42.658;23.350;2022-12-18T03:36:08;72.37;;;67.07;;
2035;SDS011;23642;42.658;23.350;2022-12-18T03:38:35;72.47;;;67.20;;
2035;SDS011;23642;42.658;23.350;2022-12-18T03:41:03;73.87;;;68.57;;
2035;SDS011;23642;42.658;23.350;2022-12-18T03:43:41;73.30;;;67.90;;
2035;SDS011;23642;42.658;23.350;2022-12-18T03:46:16;73.80;;;68.60;;
2035;SDS011;23642;42.658;23.350;2022-12-18T03:48:51;74.10;;;68.83;;
2035;SDS011;23642;42.658;23.350;2022-12-18T03:51:26;74.23;;;68.93;;
2035;SDS011;23642;42.658;23.350;2022-12-18T03:54:02;75.00;;;69.10;;
2035;SDS011;23642;42.658;23.350;2022-12-18T03:56:31;72.97;;;67.70;;
2035;SDS011;23642;42.658;23.350;2022-12-18T03:59:04;75.40;;;69.87;;
2035;SDS011;23642;42.658;23.350;2022-12-18T04:01:32;73.33;;;68.13;;
2035;SDS011;23642;42.658;23.350;2022-12-18T04:04:01;71.27;;;66.27;;
2035;SDS011;23642;42.658;23.350;2022-12-18T04:06:29;73.00;;;67.80;;
2035;SDS011;23642;42.658;23.350;2022-12-18T04:08:58;73.90;;;68.60;;
2035;SDS011;23642;42.658;23.350;2022-12-18T04:11:24;72.93;;;67.57;;
2035;SDS011;23642;42.658;23.350;2022-12-18T04:13:52;74.37;;;69.07;;
2035;SDS011;23642;42.658;23.350;2022-12-18T04:16:23;75.30;;;69.90;;
2035;SDS011;23642;42.658;23.350;2022-12-18T04:18:50;71.80;;;66.60;;
2035;SDS011;23642;42.658;23.350;2022-12-18T04:21:16;76.57;;;70.97;;
2035;SDS011;23642;42.658;23.350;2022-12-18T04:23:43;74.77;;;69.37;;
2035;SDS011;23642;42.658;23.350;2022-12-18T04:26:10;77.60;;;72.10;;
2035;SDS011;23642;42.658;23.350;2022-12-18T04:28:37;79.27;;;73.67;;
2035;SDS011;23642;42.658;23.350;2022-12-18T04:31:03;77.17;;;71.67;;
2035;SDS011;23642;42.658;23.350;2022-12-18T04:33:32;77.00;;;71.50;;
2035;SDS011;23642;42.658;23.350;2022-12-18T04:35:59;78.50;;;72.93;;
2035;SDS011;23642;42.658;23.350;2022-12-18T04:38:26;81.23;;;75.43;;
2035;SDS011;23642;42.658;23.350;2022-12-18T04:40:52;84.00;;;77.90;;
2035;SDS011;23642;42.658;23.350;2022-12-18T04:43:19;82.03;;;76.03;;
2035;SDS011;23642;42.658;23.350;2022-12-18T04:45:46;84.13;;;78.13;;
2035;SDS011;23642;42.658;23.350;2022-12-18T04:48:15;86.13;;;79.93;;
2035;SDS011;23642;42.658;23.350;2022-12-18T04:50:47;83.67;;;77.67;;
2035;SDS011;23642;42.658;23.350;2022-12-18T04:53:14;87.30;;;80.90;;
2035;SDS011;23642;42.658;23.350;2022-12-18T04:55:41;86.40;;;80.40;;
2035;SDS011;23642;42.658;23.350;2022-12-18T04:58:09;86.70;;;80.60;;
2035;SDS011;23642;42.658;23.350;2022-12-18T05:00:36;87.20;;;80.87;;
2035;SDS011;23642;42.658;23.350;2022-12-18T05:03:03;87.87;;;81.60;;
2035;SDS011;23642;42.658;23.350;2022-12-18T05:05:31;89.20;;;82.90;;
2035;SDS011;23642;42.658;23.350;2022-12-18T05:08:02;87.57;;;81.33;;
2035;SDS011;23642;42.658;23.350;2022-12-18T05:10:29;87.70;;;81.30;;
2035;SDS011;23642;42.658;23.350;2022-12-18T05:12:55;86.60;;;80.40;;
2035;SDS011;23642;42.658;23.350;2022-12-18T05:15:26;86.37;;;79.90;;
2035;SDS011;23642;42.658;23.350;2022-12-18T05:17:55;88.10;;;81.53;;
2035;SDS011;23642;42.658;23.350;2022-12-18T05:20:22;87.93;;;81.53;;
2035;SDS011;23642;42.658;23.350;2022-12-18T05:22:48;88.13;;;81.73;;
2035;SDS011;23642;42.658;23.350;2022-12-18T05:25:17;89.87;;;83.40;;
2035;SDS011;23642;42.658;23.350;2022-12-18T05:27:44;87.30;;;81.00;;
2035;SDS011;23642;42.658;23.350;2022-12-18T05:30:12;91.60;;;84.53;;
2035;SDS011;23642;42.658;23.350;2022-12-18T05:32:39;90.23;;;83.73;;
2035;SDS011;23642;42.658;23.350;2022-12-18T05:35:06;87.93;;;81.30;;
2035;SDS011;23642;42.658;23.350;2022-12-18T05:37:35;90.07;;;83.57;;
2035;SDS011;23642;42.658;23.350;2022-12-18T05:40:02;87.67;;;81.40;;
2035;SDS011;23642;42.658;23.350;2022-12-18T05:42:31;88.50;;;81.93;;
2035;SDS011;23642;42.658;23.350;2022-12-18T05:44:58;89.67;;;83.17;;
2035;SDS011;23642;42.658;23.350;2022-12-18T05:47:26;89.63;;;83.27;;
2035;SDS011;23642;42.658;23.350;2022-12-18T05:49:52;90.70;;;84.07;;
2035;SDS011;23642;42.658;23.350;2022-12-18T05:52:19;91.13;;;84.53;;
2035;SDS011;23642;42.658;23.350;2022-12-18T05:54:46;91.00;;;84.47;;
2035;SDS011;23642;42.658;23.350;2022-12-18T05:57:12;93.57;;;86.50;;
2035;SDS011;23642;42.658;23.350;2022-12-18T05:59:41;95.47;;;88.40;;
2035;SDS011;23642;42.658;23.350;2022-12-18T06:02:07;93.30;;;86.60;;
2035;SDS011;23642;42.658;23.350;2022-12-18T06:04:34;93.90;;;87.10;;
2035;SDS011;23642;42.658;23.350;2022-12-18T06:07:01;93.47;;;86.53;;
2035;SDS011;23642;42.658;23.350;2022-12-18T06:09:30;94.33;;;87.47;;
2035;SDS011;23642;42.658;23.350;2022-12-18T06:11:58;95.97;;;89.10;;
2035;SDS011;23642;42.658;23.350;2022-12-18T06:14:24;92.73;;;86.00;;
2035;SDS011;23642;42.658;23.350;2022-12-18T06:16:52;98.00;;;90.80;;
2035;SDS011;23642;42.658;23.350;2022-12-18T06:19:19;96.90;;;89.43;;
2035;SDS011;23642;42.658;23.350;2022-12-18T06:21:46;94.27;;;87.47;;
2035;SDS011;23642;42.658;23.350;2022-12-18T06:24:14;94.80;;;87.70;;
2035;SDS011;23642;42.658;23.350;2022-12-18T06:26:41;93.30;;;86.47;;
2035;SDS011;23642;42.658;23.350;2022-12-18T06:29:08;95.10;;;88.13;;
2035;SDS011;23642;42.658;23.350;2022-12-18T06:31:37;96.20;;;89.20;;
2035;SDS011;23642;42.658;23.350;2022-12-18T06:34:07;95.43;;;88.53;;
2035;SDS011;23642;42.658;23.350;2022-12-18T06:36:34;93.43;;;86.53;;
2035;SDS011;23642;42.658;23.350;2022-12-18T06:39:01;95.90;;;89.00;;
2035;SDS011;23642;42.658;23.350;2022-12-18T06:41:28;95.67;;;88.67;;
2035;SDS011;23642;42.658;23.350;2022-12-18T06:43:55;96.33;;;88.97;;
2035;SDS011;23642;42.658;23.350;2022-12-18T06:46:23;98.77;;;91.30;;
2035;SDS011;23642;42.658;23.350;2022-12-18T06:48:50;100.83;;;93.53;;
2035;SDS011;23642;42.658;23.350;2022-12-18T06:51:19;98.60;;;91.43;;
2035;SDS011;23642;42.658;23.350;2022-12-18T06:53:46;100.93;;;93.63;;
2035;SDS011;23642;42.658;23.350;2022-12-18T06:56:13;99.20;;;91.77;;
2035;SDS011;23642;42.658;23.350;2022-12-18T06:58:40;102.17;;;94.60;;
2035;SDS011;23642;42.658;23.350;2022-12-18T07:01:07;102.00;;;94.37;;
2035;SDS011;23642;42.658;23.350;2022-12-18T07:03:35;100.97;;;93.67;;
2035;SDS011;23642;42.658;23.350;2022-12-18T07:06:02;101.23;;;93.93;;
2035;SDS011;23642;42.658;23.350;2022-12-18T07:08:30;103.70;;;96.00;;
2035;SDS011;23642;42.658;23.350;2022-12-18T07:10:57;100.63;;;93.23;;
2035;SDS011;23642;42.658;23.350;2022-12-18T07:13:24;103.00;;;94.70;;
2035;SDS011;23642;42.658;23.350;2022-12-18T07:15:51;103.00;;;95.40;;
2035;SDS011;23642;42.658;23.350;2022-12-18T07:18:18;104.50;;;96.90;;
2035;SDS011;23642;42.658;23.350;2022-12-18T07:20:45;105.30;;;97.47;;
2035;SDS011;23642;42.658;23.350;2022-12-18T07:23:11;104.53;;;96.73;;
2035;SDS011;23642;42.658;23.350;2022-12-18T07:25:42;103.73;;;96.23;;
2035;SDS011;23642;42.658;23.350;2022-12-18T07:28:09;101.37;;;94.10;;
2035;SDS011;23642;42.658;23.350;2022-12-18T07:30:37;105.10;;;97.37;;
2035;SDS011;23642;42.658;23.350;2022-12-18T07:33:04;103.93;;;96.07;;
2035;SDS011;23642;42.658;23.350;2022-12-18T07:35:32;103.87;;;96.50;;
2035;SDS011;23642;42.658;23.350;2022-12-18T07:37:59;107.63;;;99.83;;
2035;SDS011;23642;42.658;23.350;2022-12-18T07:40:25;103.80;;;96.00;;
2035;SDS011;23642;42.658;23.350;2022-12-18T07:42:58;106.03;;;98.33;;
2035;SDS011;23642;42.658;23.350;2022-12-18T07:45:24;104.47;;;96.73;;
2035;SDS011;23642;42.658;23.350;2022-12-18T07:47:51;102.97;;;95.40;;
2035;SDS011;23642;42.658;23.350;2022-12-18T07:50:18;105.90;;;98.23;;
2035;SDS011;23642;42.658;23.350;2022-12-18T07:52:45;106.17;;;98.40;;
2035;SDS011;23642;42.658;23.350;2022-12-18T07:55:14;108.07;;;100.00;;
2035;SDS011;23642;42.658;23.350;2022-12-18T07:57:41;105.13;;;97.37;;
2035;SDS011;23642;42.658;23.350;2022-12-18T08:00:14;108.53;;;99.93;;
2035;SDS011;23642;42.658;23.350;2022-12-18T08:02:41;105.20;;;97.40;;
2035;SDS011;23642;42.658;23.350;2022-12-18T08:05:08;107.07;;;99.20;;
2035;SDS011;23642;42.658;23.350;2022-12-18T08:07:35;106.20;;;98.50;;
2035;SDS011;23642;42.658;23.350;2022-12-18T08:10:02;107.20;;;99.23;;
2035;SDS011;23642;42.658;23.350;2022-12-18T08:12:29;109.63;;;101.50;;
2035;SDS011;23642;42.658;23.350;2022-12-18T08:14:55;107.77;;;99.63;;
2035;SDS011;23642;42.658;23.350;2022-12-18T08:17:23;107.10;;;99.10;;
2035;SDS011;23642;42.658;23.350;2022-12-18T08:19:50;108.30;;;99.90;;
2035;SDS011;23642;42.658;23.350;2022-12-18T08:22:17;106.60;;;98.63;;
2035;SDS011;23642;42.658;23.350;2022-12-18T08:24:44;108.90;;;100.50;;
2035;SDS011;23642;42.658;23.350;2022-12-18T08:27:11;109.80;;;101.53;;
2035;SDS011;23642;42.658;23.350;2022-12-18T08:29:37;105.50;;;97.47;;
2035;SDS011;23642;42.658;23.350;2022-12-18T08:32:04;107.47;;;99.53;;
2035;SDS011;23642;42.658;23.350;2022-12-18T08:34:32;106.80;;;98.80;;
2035;SDS011;23642;42.658;23.350;2022-12-18T08:36:59;109.00;;;101.00;;
2035;SDS011;23642;42.658;23.350;2022-12-18T08:39:26;109.73;;;101.60;;
2035;SDS011;23642;42.658;23.350;2022-12-18T08:41:53;107.57;;;99.53;;
2035;SDS011;23642;42.658;23.350;2022-12-18T08:44:37;109.50;;;101.17;;
2035;SDS011;23642;42.658;23.350;2022-12-18T08:47:04;106.30;;;98.40;;
2035;SDS011;23642;42.658;23.350;2022-12-18T08:49:32;109.77;;;101.47;;
2035;SDS011;23642;42.658;23.350;2022-12-18T08:51:59;109.07;;;100.87;;
2035;SDS011;23642;42.658;23.350;2022-12-18T08:54:28;106.10;;;98.03;;
2035;SDS011;23642;42.658;23.350;2022-12-18T08:56:55;109.27;;;101.07;;
2035;SDS011;23642;42.658;23.350;2022-12-18T08:59:22;107.17;;;99.33;;
2035;SDS011;23642;42.658;23.350;2022-12-18T09:01:49;109.93;;;101.63;;
2035;SDS011;23642;42.658;23.350;2022-12-18T09:04:16;110.77;;;102.37;;
2035;SDS011;23642;42.658;23.350;2022-12-18T09:06:44;111.07;;;102.67;;
2035;SDS011;23642;42.658;23.350;2022-12-18T09:09:11;111.53;;;103.23;;
2035;SDS011;23642;42.658;23.350;2022-12-18T09:11:37;109.97;;;100.60;;
2035;SDS011;23642;42.658;23.350;2022-12-18T09:14:04;109.43;;;101.30;;
2035;SDS011;23642;42.658;23.350;2022-12-18T09:16:31;110.03;;;101.87;;
2035;SDS011;23642;42.658;23.350;2022-12-18T09:19:00;110.70;;;102.47;;
2035;SDS011;23642;42.658;23.350;2022-12-18T09:21:28;113.37;;;104.77;;
2035;SDS011;23642;42.658;23.350;2022-12-18T09:23:58;110.30;;;102.20;;
2035;SDS011;23642;42.658;23.350;2022-12-18T09:26:26;112.73;;;104.30;;
2035;SDS011;23642;42.658;23.350;2022-12-18T09:28:53;113.73;;;105.00;;
2035;SDS011;23642;42.658;23.350;2022-12-18T09:31:21;110.43;;;102.13;;
2035;SDS011;23642;42.658;23.350;2022-12-18T09:33:49;112.70;;;104.40;;
2035;SDS011;23642;42.658;23.350;2022-12-18T09:36:16;111.33;;;102.90;;
2035;SDS011;23642;42.658;23.350;2022-12-18T09:38:45;109.37;;;101.40;;
2035;SDS011;23642;42.658;23.350;2022-12-18T09:41:17;112.90;;;104.60;;
2035;SDS011;23642;42.658;23.350;2022-12-18T09:44:00;113.40;;;105.17;;
2035;SDS011;23642;42.658;23.350;2022-12-18T09:46:30;115.73;;;107.17;;
2035;SDS011;23642;42.658;23.350;2022-12-18T09:49:03;112.30;;;104.20;;
2035;SDS011;23642;42.658;23.350;2022-12-18T09:51:39;111.23;;;103.17;;
2035;SDS011;23642;42.658;23.350;2022-12-18T09:54:11;111.43;;;103.40;;
2035;SDS011;23642;42.658;23.350;2022-12-18T09:56:46;113.77;;;105.47;;
2035;SDS011;23642;42.658;23.350;2022-12-18T09:59:16;114.67;;;106.17;;
2035;SDS011;23642;42.658;23.350;2022-12-18T10:01:47;115.40;;;106.77;;
2035;SDS011;23642;42.658;23.350;2022-12-18T10:04:14;113.50;;;104.93;;
2035;SDS011;23642;42.658;23.350;2022-12-18T10:06:43;114.43;;;106.37;;
2035;SDS011;23642;42.658;23.350;2022-12-18T10:09:18;113.97;;;105.80;;
2035;SDS011;23642;42.658;23.350;2022-12-18T10:11:55;115.63;;;107.20;;
2035;SDS011;23642;42.658;23.350;2022-12-18T10:14:30;116.90;;;108.20;;
2035;SDS011;23642;42.658;23.350;2022-12-18T10:17:03;115.07;;;106.67;;
2035;SDS011;23642;42.658;23.350;2022-12-18T10:19:37;118.17;;;109.37;;
2035;SDS011;23642;42.658;23.350;2022-12-18T10:22:16;117.30;;;108.60;;
2035;SDS011;23642;42.658;23.350;2022-12-18T10:24:54;111.53;;;103.77;;
2035;SDS011;23642;42.658;23.350;2022-12-18T10:27:29;117.10;;;108.40;;
2035;SDS011;23642;42.658;23.350;2022-12-18T10:29:57;114.33;;;106.23;;
2035;SDS011;23642;42.658;23.350;2022-12-18T10:32:25;115.67;;;107.17;;
2035;SDS011;23642;42.658;23.350;2022-12-18T10:34:54;113.13;;;104.83;;
2035;SDS011;23642;42.658;23.350;2022-12-18T10:37:23;116.77;;;108.17;;
2035;SDS011;23642;42.658;23.350;2022-12-18T10:40:05;113.83;;;105.53;;
2035;SDS011;23642;42.658;23.350;2022-12-18T10:42:36;113.27;;;105.20;;
2035;SDS011;23642;42.658;23.350;2022-12-18T10:45:07;115.87;;;107.47;;
2035;SDS011;23642;42.658;23.350;2022-12-18T10:47:36;113.47;;;105.17;;
2035;SDS011;23642;42.658;23.350;2022-12-18T10:50:11;115.27;;;106.77;;
2035;SDS011;23642;42.658;23.350;2022-12-18T10:52:45;114.03;;;105.83;;
2035;SDS011;23642;42.658;23.350;2022-12-18T10:55:20;115.57;;;107.23;;
2035;SDS011;23642;42.658;23.350;2022-12-18T10:57:49;115.30;;;106.60;;
2035;SDS011;23642;42.658;23.350;2022-12-18T11:00:23;112.60;;;104.20;;
2035;SDS011;23642;42.658;23.350;2022-12-18T11:03:01;116.50;;;107.73;;
2035;SDS011;23642;42.658;23.350;2022-12-18T11:05:28;112.47;;;104.27;;
2035;SDS011;23642;42.658;23.350;2022-12-18T11:07:56;115.93;;;107.17;;
2035;SDS011;23642;42.658;23.350;2022-12-18T11:10:26;112.80;;;104.60;;
2035;SDS011;23642;42.658;23.350;2022-12-18T11:13:09;114.80;;;106.37;;
2035;SDS011;23642;42.658;23.350;2022-12-18T11:15:39;111.83;;;103.70;;
2035;SDS011;23642;42.658;23.350;2022-12-18T11:18:14;115.93;;;107.30;;
2035;SDS011;23642;42.658;23.350;2022-12-18T11:20:49;114.33;;;106.00;;
2035;SDS011;23642;42.658;23.350;2022-12-18T11:23:18;112.90;;;104.70;;
2035;SDS011;23642;42.658;23.350;2022-12-18T11:25:50;114.47;;;106.27;;
2035;SDS011;23642;42.658;23.350;2022-12-18T11:28:28;114.07;;;105.97;;
2035;SDS011;23642;42.658;23.350;2022-12-18T11:31:22;115.07;;;106.80;;
2035;SDS011;23642;42.658;23.350;2022-12-18T11:34:01;113.57;;;105.30;;
2035;SDS011;23642;42.658;23.350;2022-12-18T11:36:33;112.83;;;104.20;;
2035;SDS011;23642;42.658;23.350;2022-12-18T11:39:11;115.27;;;106.53;;
2035;SDS011;23642;42.658;23.350;2022-12-18T11:41:45;116.70;;;108.10;;
2035;SDS011;23642;42.658;23.350;2022-12-18T11:44:38;115.83;;;107.53;;
2035;SDS011;23642;42.658;23.350;2022-12-18T11:47:09;112.37;;;104.30;;
2035;SDS011;23642;42.658;23.350;2022-12-18T11:49:41;113.30;;;105.10;;
2035;SDS011;23642;42.658;23.350;2022-12-18T11:52:09;116.77;;;108.03;;
2035;SDS011;23642;42.658;23.350;2022-12-18T11:54:42;115.00;;;106.27;;
2035;SDS011;23642;42.658;23.350;2022-12-18T11:57:10;114.80;;;106.40;;
2035;SDS011;23642;42.658;23.350;2022-12-18T11:59:52;112.97;;;104.80;;
2035;SDS011;23642;42.658;23.350;2022-12-18T12:02:36;114.57;;;106.27;;
2035;SDS011;23642;42.658;23.350;2022-12-18T12:05:18;114.60;;;106.30;;
2035;SDS011;23642;42.658;23.350;2022-12-18T12:07:58;112.23;;;104.23;;
2035;SDS011;23642;42.658;23.350;2022-12-18T12:10:34;114.27;;;106.13;;
2035;SDS011;23642;42.658;23.350;2022-12-18T12:13:15;112.70;;;104.70;;
2035;SDS011;23642;42.658;23.350;2022-12-18T12:15:58;113.27;;;105.17;;
2035;SDS011;23642;42.658;23.350;2022-12-18T12:18:37;116.07;;;107.70;;
2035;SDS011;23642;42.658;23.350;2022-12-18T12:21:18;115.13;;;106.83;;
2035;SDS011;23642;42.658;23.350;2022-12-18T12:23:53;115.27;;;106.50;;
2035;SDS011;23642;42.658;23.350;2022-12-18T12:26:29;114.63;;;106.10;;
2035;SDS011;23642;42.658;23.350;2022-12-18T12:29:06;113.43;;;104.83;;
2035;SDS011;23642;42.658;23.350;2022-12-18T12:31:49;113.13;;;104.67;;
2035;SDS011;23642;42.658;23.350;2022-12-18T12:34:26;115.00;;;106.63;;
2035;SDS011;23642;42.658;23.350;2022-12-18T12:37:07;113.17;;;104.87;;
2035;SDS011;23642;42.658;23.350;2022-12-18T12:39:43;116.27;;;107.83;;
2035;SDS011;23642;42.658;23.350;2022-12-18T12:42:14;114.67;;;106.27;;
2035;SDS011;23642;42.658;23.350;2022-12-18T12:45:04;114.47;;;106.07;;
2035;SDS011;23642;42.658;23.350;2022-12-18T12:47:35;114.40;;;106.37;;
2035;SDS011;23642;42.658;23.350;2022-12-18T12:50:12;114.00;;;105.63;;
2035;SDS011;23642;42.658;23.350;2022-12-18T12:52:47;114.30;;;105.67;;
2035;SDS011;23642;42.658;23.350;2022-12-18T12:55:18;117.00;;;108.47;;
2035;SDS011;23642;42.658;23.350;2022-12-18T12:57:50;113.30;;;104.90;;
2035;SDS011;23642;42.658;23.350;2022-12-18T13:00:24;117.20;;;108.60;;
2035;SDS011;23642;42.658;23.350;2022-12-18T13:02:56;116.00;;;107.20;;
2035;SDS011;23642;42.658;23.350;2022-12-18T13:05:30;113.33;;;104.97;;
2035;SDS011;23642;42.658;23.350;2022-12-18T13:08:03;116.80;;;108.20;;
2035;SDS011;23642;42.658;23.350;2022-12-18T13:10:33;115.50;;;107.23;;
2035;SDS011;23642;42.658;23.350;2022-12-18T13:13:01;115.70;;;107.07;;
2035;SDS011;23642;42.658;23.350;2022-12-18T13:15:38;116.00;;;107.30;;
2035;SDS011;23642;42.658;23.350;2022-12-18T13:21:32;114.13;;;105.87;;
2035;SDS011;23642;42.658;23.350;2022-12-18T13:24:13;115.80;;;107.23;;
2035;SDS011;23642;42.658;23.350;2022-12-18T13:26:41;116.20;;;107.63;;
2035;SDS011;23642;42.658;23.350;2022-12-18T13:29:08;116.93;;;108.33;;
2035;SDS011;23642;42.658;23.350;2022-12-18T13:34:48;116.40;;;107.50;;
2035;SDS011;23642;42.658;23.350;2022-12-18T13:37:39;114.77;;;106.43;;
2035;SDS011;23642;42.658;23.350;2022-12-18T13:43:24;117.57;;;109.07;;
2035;SDS011;23642;42.658;23.350;2022-12-18T13:46:01;114.13;;;105.63;;
2035;SDS011;23642;42.658;23.350;2022-12-18T13:48:54;113.50;;;105.23;;
2035;SDS011;23642;42.658;23.350;2022-12-18T13:51:23;113.77;;;105.57;;
2035;SDS011;23642;42.658;23.350;2022-12-18T13:53:53;115.90;;;107.10;;
2035;SDS011;23642;42.658;23.350;2022-12-18T13:56:24;115.73;;;107.23;;
2035;SDS011;23642;42.658;23.350;2022-12-18T14:01:43;117.00;;;108.40;;
2035;SDS011;23642;42.658;23.350;2022-12-18T14:04:11;117.93;;;108.70;;
2035;SDS011;23642;42.658;23.350;2022-12-18T14:06:44;117.77;;;108.70;;
2035;SDS011;23642;42.658;23.350;2022-12-18T14:09:19;115.67;;;107.17;;
2035;SDS011;23642;42.658;23.350;2022-12-18T14:12:00;116.00;;;107.47;;
2035;SDS011;23642;42.658;23.350;2022-12-18T14:14:49;116.27;;;107.77;;
2035;SDS011;23642;42.658;23.350;2022-12-18T14:17:18;115.63;;;107.20;;
2035;SDS011;23642;42.658;23.350;2022-12-18T14:19:46;118.40;;;110.00;;
2035;SDS011;23642;42.658;23.350;2022-12-18T14:22:15;118.30;;;109.53;;
2035;SDS011;23642;42.658;23.350;2022-12-18T14:24:45;118.07;;;109.37;;
2035;SDS011;23642;42.658;23.350;2022-12-18T14:27:20;117.07;;;108.40;;
2035;SDS011;23642;42.658;23.350;2022-12-18T14:29:49;115.00;;;106.80;;
2035;SDS011;23642;42.658;23.350;2022-12-18T14:32:17;116.57;;;108.37;;
2035;SDS011;23642;42.658;23.350;2022-12-18T14:34:45;116.60;;;108.40;;
2035;SDS011;23642;42.658;23.350;2022-12-18T14:37:13;115.63;;;107.43;;
2035;SDS011;23642;42.658;23.350;2022-12-18T14:39:53;116.67;;;108.00;;
2035;SDS011;23642;42.658;23.350;2022-12-18T14:42:21;116.00;;;107.70;;